Time;durP1;ratioP1;P1;durP2;ratioP2;P2;SDS_P1;SDS_P2;PMS_P1;PMS_P2;Temp;Humidity;BMP_temperature;BMP_pressure;BME280_temperature;BME280_humidity;BME280_pressure;Samples;Min_cycle;Max_cycle;Signal;HPM_P1;HPM_P2
2023/04/14 00:02:14;;;;;;;;;;;;;;;-144.99;100.00;52480.72;4994398;28;19980;-64
2023/04/14 00:04:42;;;;;;;;;;;;;;;-144.99;100.00;52456.25;4993475;28;20152;-65
2023/04/14 00:07:08;;;;;;;;;;;;;;;-144.99;100.00;52456.25;4990808;28;19926;-65
2023/04/14 00:09:35;;;;;;;;;;;;;;;-144.99;100.00;52476.63;4993971;28;20291;-64
2023/04/14 00:12:01;;;;;;;;;;;;;;;-144.99;100.00;52488.84;4983683;28;19968;-65
2023/04/14 00:14:28;;;;;;;;;;;;;;;-144.99;100.00;52454.22;4998428;28;20346;-65
2023/04/14 00:16:54;;;;;;;;;;;;;;;-144.99;100.00;52488.84;4990096;28;19925;-66
2023/04/14 00:19:21;;;;;;;;;;;;;;;-144.99;100.00;52462.34;5000853;28;19976;-65
2023/04/14 00:21:49;;;;;;;;;;;;;;;-144.99;100.00;52480.72;4995999;28;20454;-66
2023/04/14 00:24:15;;;;;;;;;;;;;;;-144.99;100.00;52488.84;4996936;28;20020;-66
2023/04/14 00:26:42;;;;;;;;;;;;;;;-144.99;100.00;52480.72;4992739;28;19938;-66
2023/04/14 00:29:08;;;;;;;;;;;;;;;-144.99;100.00;52509.25;4992154;28;19945;-65
2023/04/14 00:31:35;;;;;;;;;;;;;;;-144.99;100.00;52460.31;4992958;28;19957;-65
2023/04/14 00:34:01;;;;;;;;;;;;;;;-144.99;100.00;52521.47;4987165;28;20252;-65
2023/04/14 00:36:28;;;;;;;;;;;;;;;-144.99;100.00;52492.94;4988564;28;19969;-65
2023/04/14 00:38:56;;;;;;;;;;;;;;;-144.99;100.00;52476.63;4994194;28;19969;-65
2023/04/14 00:41:23;;;;;;;;;;;;;;;-144.99;100.00;52492.94;4997625;28;19926;-64
2023/04/14 00:43:52;;;;;;;;;;;;;;;-144.99;100.00;52484.78;4987415;28;19961;-66
2023/04/14 00:46:19;;;;;;;;;;;;;;;-144.99;100.00;52474.59;4991963;28;19961;-66
2023/04/14 00:48:45;;;;;;;;;;;;;;;-144.99;100.00;52480.72;5004954;28;19937;-66
2023/04/14 00:51:12;;;;;;;;;;;;;;;-144.99;100.00;52472.56;4982452;28;20263;-66
2023/04/14 00:53:38;;;;;;;;;;;;;;;-144.99;100.00;52499.06;4993409;28;20006;-66
2023/04/14 00:56:07;;;;;;;;;;;;;;;-144.99;100.00;52525.56;4994376;28;19953;-66
2023/04/14 00:58:34;;;;;;;;;;;;;;;-144.99;100.00;52521.47;5001802;28;20011;-66
2023/04/14 01:01:01;;;;;;;;;;;;;;;-144.99;100.00;52439.94;4996225;28;19926;-66
2023/04/14 01:03:27;;;;;;;;;;;;;;;-144.99;100.00;52482.75;4989827;28;19957;-66
2023/04/14 01:05:54;;;;;;;;;;;;;;;-144.99;100.00;52456.25;4996287;28;19929;-66
2023/04/14 01:08:21;;;;;;;;;;;;;;;-144.99;100.00;52456.25;4997725;28;20311;-66
2023/04/14 01:10:49;;;;;;;;;;;;;;;-144.99;100.00;52472.56;4996481;28;20185;-66
2023/04/14 01:13:25;;;;;;;;;;;;;;;-144.99;100.00;52505.16;4992271;28;19926;-66
2023/04/14 01:15:54;;;;;;;;;;;;;;;-144.99;100.00;52484.78;4998903;28;19961;-66
2023/04/14 01:18:23;;;;;;;;;;;;;;;-144.99;100.00;52448.09;4995240;28;20192;-66
2023/04/14 01:20:51;;;;;;;;;;;;;;;-144.99;100.00;52492.94;4990443;28;19976;-66
2023/04/14 01:23:21;;;;;;;;;;;;;;;-144.99;100.00;52448.09;4996646;28;19958;-66
2023/04/14 01:26:02;;;;;;;;;;;;;;;-144.99;100.00;52513.31;4990538;28;19980;-66
2023/04/14 01:28:48;;;;;;;;;;;;;;;-144.99;100.00;52452.16;4990200;28;19987;-66
2023/04/14 01:31:22;;;;;;;;;;;;;;;-144.99;100.00;52482.75;4990904;28;19965;-66
2023/04/14 01:33:53;;;;;;;;;;;;;;;-144.99;100.00;52497.00;4990119;28;19933;-65
2023/04/14 01:36:26;;;;;;;;;;;;;;;-144.99;100.00;52484.78;4990527;28;20055;-65
2023/04/14 01:38:53;;;;;;;;;;;;;;;-144.99;100.00;52484.78;4989254;28;20065;-65
2023/04/14 01:41:21;;;;;;;;;;;;;;;-144.99;100.00;52452.16;4996142;28;19965;-65
2023/04/14 01:43:51;;;;;;;;;;;;;;;-144.99;100.00;52452.16;4998199;28;19925;-65
2023/04/14 01:46:19;;;;;;;;;;;;;;;-144.99;100.00;52492.94;4997658;28;20008;-65
2023/04/14 01:48:46;;;;;;;;;;;;;;;-144.99;100.00;52480.72;5004097;28;19972;-66
2023/04/14 01:51:14;;;;;;;;;;;;;;;-144.99;100.00;52492.94;4992974;28;19926;-65
2023/04/14 01:53:42;;;;;;;;;;;;;;;-144.99;100.00;52484.78;4992807;28;19936;-65
2023/04/14 01:56:10;;;;;;;;;;;;;;;-144.99;100.00;52476.63;4992986;28;20448;-65
2023/04/14 01:58:37;;;;;;;;;;;;;;;-144.99;100.00;52456.25;4992994;28;19952;-65
2023/04/14 02:01:05;;;;;;;;;;;;;;;-144.99;100.00;52488.84;4994358;28;19973;-65
2023/04/14 02:03:32;;;;;;;;;;;;;;;-144.99;100.00;52488.84;4992490;28;20005;-65
2023/04/14 02:06:02;;;;;;;;;;;;;;;-144.99;100.00;52439.94;4987019;28;19926;-65
2023/04/14 02:08:29;;;;;;;;;;;;;;;-144.99;100.00;52509.25;4994767;28;20264;-65
2023/04/14 02:10:57;;;;;;;;;;;;;;;-144.99;100.00;52480.72;4997476;28;19936;-65
2023/04/14 02:13:25;;;;;;;;;;;;;;;-144.99;100.00;52468.47;4996387;28;19930;-65
2023/04/14 02:15:53;;;;;;;;;;;;;;;-144.99;100.00;52488.84;4996277;28;19941;-65
2023/04/14 02:18:20;;;;;;;;;;;;;;;-144.99;100.00;52492.94;4993493;28;19926;-65
2023/04/14 02:20:48;;;;;;;;;;;;;;;-144.99;100.00;52460.31;4997943;28;19987;-65
2023/04/14 02:23:15;;;;;;;;;;;;;;;-144.99;100.00;52529.63;4994504;28;20353;-64
2023/04/14 02:25:48;;;;;;;;;;;;;;;-144.99;100.00;52505.16;4992887;28;19937;-65
2023/04/14 02:28:18;;;;;;;;;;;;;;;-144.99;100.00;52472.56;4994955;28;19975;-65
2023/04/14 02:30:47;;;;;;;;;;;;;;;-144.99;100.00;52468.47;4990210;28;20175;-65
2023/04/14 02:33:16;;;;;;;;;;;;;;;-144.99;100.00;52468.47;4992240;28;20285;-67
2023/04/14 02:35:44;;;;;;;;;;;;;;;-144.99;100.00;52509.25;4988581;28;19944;-64
2023/04/14 02:38:16;;;;;;;;;;;;;;;-144.99;100.00;52488.84;4990722;28;19933;-66
2023/04/14 02:40:43;;;;;;;;;;;;;;;-144.99;100.00;52490.91;4996669;28;20482;-64
2023/04/14 02:43:11;;;;;;;;;;;;;;;-144.99;100.00;52492.94;4987794;28;20002;-66
2023/04/14 02:45:41;;;;;;;;;;;;;;;-144.99;100.00;52521.47;4998259;28;20461;-66
2023/04/14 02:48:09;;;;;;;;;;;;;;;-144.99;100.00;52472.56;5001371;28;19958;-66
2023/04/14 02:50:37;;;;;;;;;;;;;;;-144.99;100.00;52466.44;4983093;28;19962;-66
2023/04/14 02:53:04;;;;;;;;;;;;;;;-144.99;100.00;52464.41;4994849;28;19930;-66
2023/04/14 02:55:32;;;;;;;;;;;;;;;-144.99;100.00;52488.84;4989577;28;19933;-66
2023/04/14 02:57:59;;;;;;;;;;;;;;;-144.99;100.00;52468.47;4995648;28;19972;-66
2023/04/14 03:00:26;;;;;;;;;;;;;;;-144.99;100.00;52490.91;4994550;28;19930;-64
2023/04/14 03:02:53;;;;;;;;;;;;;;;-144.99;100.00;52484.78;4990824;28;19996;-65
2023/04/14 03:05:20;;;;;;;;;;;;;;;-144.99;100.00;52482.75;4987572;28;20449;-67
2023/04/14 03:07:47;;;;;;;;;;;;;;;-144.99;100.00;52472.56;4995648;28;19929;-67
2023/04/14 03:10:14;;;;;;;;;;;;;;;-144.99;100.00;52439.94;4993540;28;19980;-66
2023/04/14 03:12:43;;;;;;;;;;;;;;;-144.99;100.00;52439.94;4996514;28;20311;-67
2023/04/14 03:15:10;;;;;;;;;;;;;;;-144.99;100.00;52492.94;4994548;28;19925;-67
2023/04/14 03:17:37;;;;;;;;;;;;;;;-144.99;100.00;52480.72;4992432;28;20391;-67
2023/04/14 03:20:04;;;;;;;;;;;;;;;-144.99;100.00;52486.81;4994964;28;19929;-66
2023/04/14 03:22:34;;;;;;;;;;;;;;;-144.99;100.00;52509.25;4993177;28;19961;-68
2023/04/14 03:25:01;;;;;;;;;;;;;;;-144.99;100.00;52480.72;4988694;28;20012;-67
2023/04/14 03:27:30;;;;;;;;;;;;;;;-144.99;100.00;52484.78;4996943;28;20306;-66
2023/04/14 03:30:02;;;;;;;;;;;;;;;-144.99;100.00;52464.41;4976082;28;19952;-66
2023/04/14 03:32:30;;;;;;;;;;;;;;;-144.99;100.00;52505.16;4984164;28;20295;-66
2023/04/14 03:35:00;;;;;;;;;;;;;;;-144.99;100.00;52523.50;4989796;28;20364;-65
2023/04/14 03:37:27;;;;;;;;;;;;;;;-144.99;100.00;52490.91;4992953;28;19925;-66
2023/04/14 03:39:58;;;;;;;;;;;;;;;-144.99;100.00;52501.09;4991909;28;20379;-65
2023/04/14 03:42:26;;;;;;;;;;;;;;;-144.99;100.00;52484.78;4993393;28;19929;-65
2023/04/14 03:44:55;;;;;;;;;;;;;;;-144.99;100.00;52513.31;4994431;28;19930;-65
2023/04/14 03:47:25;;;;;;;;;;;;;;;-144.99;100.00;52505.16;5001560;28;20263;-65
2023/04/14 03:49:55;;;;;;;;;;;;;;;-144.99;100.00;52492.94;4993409;28;20020;-67
2023/04/14 03:52:23;;;;;;;;;;;;;;;-144.99;100.00;52494.97;4989951;28;19926;-66
2023/04/14 03:54:52;;;;;;;;;;;;;;;-144.99;100.00;52492.94;4985802;28;19944;-67
2023/04/14 03:57:19;;;;;;;;;;;;;;;-144.99;100.00;52517.41;4992049;28;20288;-67
2023/04/14 03:59:47;;;;;;;;;;;;;;;-144.99;100.00;52497.00;5002317;28;20408;-68
2023/04/14 04:02:14;;;;;;;;;;;;;;;-144.99;100.00;52462.34;4997209;28;20024;-67
2023/04/14 04:04:43;;;;;;;;;;;;;;;-144.99;100.00;52476.63;4994198;28;20386;-67
2023/04/14 04:07:12;;;;;;;;;;;;;;;-144.99;100.00;52444.03;4998659;28;19937;-67
2023/04/14 04:09:39;;;;;;;;;;;;;;;-144.99;100.00;52448.09;4989421;28;19969;-67
2023/04/14 04:12:06;;;;;;;;;;;;;;;-144.99;100.00;52484.78;4992858;28;19933;-67
2023/04/14 04:14:34;;;;;;;;;;;;;;;-144.99;100.00;52497.00;5000721;28;19929;-67
2023/04/14 04:17:04;;;;;;;;;;;;;;;-144.99;100.00;52501.09;4981968;28;20330;-67
2023/04/14 04:19:32;;;;;;;;;;;;;;;-144.99;100.00;52476.63;5001778;28;19925;-67
2023/04/14 04:22:01;;;;;;;;;;;;;;;-144.99;100.00;52484.78;4995781;28;19925;-68
2023/04/14 04:24:31;;;;;;;;;;;;;;;-144.99;100.00;52468.47;4995621;28;19965;-67
2023/04/14 04:26:58;;;;;;;;;;;;;;;-144.99;100.00;52480.72;4994272;28;19926;-67
2023/04/14 04:29:25;;;;;;;;;;;;;;;-144.99;100.00;52456.25;4995650;28;20068;-67
2023/04/14 04:31:52;;;;;;;;;;;;;;;-144.99;100.00;52501.09;4995793;28;20342;-67
2023/04/14 04:34:19;;;;;;;;;;;;;;;-144.99;100.00;52476.63;4994597;28;19976;-65
2023/04/14 04:36:46;;;;;;;;;;;;;;;-144.99;100.00;52494.97;5017502;23;20011;-65
2023/04/14 04:39:14;;;;;;;;;;;;;;;-144.99;100.00;52494.97;5011544;28;20019;-64
2023/04/14 04:41:41;;;;;;;;;;;;;;;-144.99;100.00;52444.03;5010631;28;20305;-64
2023/04/14 04:44:08;;;;;;;;;;;;;;;-144.99;100.00;52497.00;5011602;28;19929;-64
2023/04/14 04:46:44;;;;;;;;;;;;;;;-144.99;100.00;52501.09;5012029;28;20339;-65
2023/04/14 04:49:10;;;;;;;;;;;;;;;-144.99;100.00;52529.63;5017487;28;19925;-65
2023/04/14 04:51:37;;;;;;;;;;;;;;;-144.99;100.00;52497.00;5003020;28;19933;-66
2023/04/14 04:54:04;;;;;;;;;;;;;;;-144.99;100.00;52484.78;5010239;28;19925;-65
2023/04/14 04:56:32;;;;;;;;;;;;;;;-144.99;100.00;52505.16;5010049;28;19932;-65
2023/04/14 04:58:59;;;;;;;;;;;;;;;-144.99;100.00;52509.25;5011534;28;19948;-65
2023/04/14 05:01:26;;;;;;;;;;;;;;;-144.99;100.00;52480.72;5002994;28;20049;-64
2023/04/14 05:03:52;;;;;;;;;;;;;;;-144.99;100.00;52501.09;5010706;28;19929;-65
2023/04/14 05:06:19;;;;;;;;;;;;;;;-144.99;100.00;52484.78;5011913;28;20451;-64
2023/04/14 05:08:45;;;;;;;;;;;;;;;-144.99;100.00;52464.41;5011364;28;19961;-65
2023/04/14 05:11:12;;;;;;;;;;;;;;;-144.99;100.00;52468.47;5011475;28;20148;-64
2023/04/14 05:13:40;;;;;;;;;;;;;;;-144.99;100.00;52480.72;5008715;28;19940;-64
2023/04/14 05:16:07;;;;;;;;;;;;;;;-144.99;100.00;52454.22;5003115;28;19969;-64
2023/04/14 05:18:35;;;;;;;;;;;;;;;-144.99;100.00;52507.19;5011107;28;19972;-64
2023/04/14 05:21:02;;;;;;;;;;;;;;;-144.99;100.00;52452.16;5003884;28;19969;-64
2023/04/14 05:23:29;;;;;;;;;;;;;;;-144.99;100.00;52452.16;5008021;28;20404;-64
2023/04/14 05:25:56;;;;;;;;;;;;;;;-144.99;100.00;52460.31;5011214;28;20433;-65
2023/04/14 05:28:22;;;;;;;;;;;;;;;-144.99;100.00;52460.31;5011065;28;19936;-65
2023/04/14 05:30:50;;;;;;;;;;;;;;;-144.99;100.00;52515.34;5007940;28;20417;-64
2023/04/14 05:33:17;;;;;;;;;;;;;;;-144.99;100.00;52490.91;5006071;28;19929;-64
2023/04/14 05:35:44;;;;;;;;;;;;;;;-144.99;100.00;52456.25;5003117;28;19960;-66
2023/04/14 05:38:10;;;;;;;;;;;;;;;-144.99;100.00;52509.25;5007231;28;19965;-63
2023/04/14 05:40:37;;;;;;;;;;;;;;;-144.99;100.00;52444.03;5010847;28;19929;-63
2023/04/14 05:43:04;;;;;;;;;;;;;;;-144.99;100.00;52444.03;5010327;28;19964;-64
2023/04/14 05:45:30;;;;;;;;;;;;;;;-144.99;100.00;52488.84;5010670;28;19972;-64
2023/04/14 05:47:58;;;;;;;;;;;;;;;-144.99;100.00;52431.78;5018522;28;19980;-63
2023/04/14 05:50:25;;;;;;;;;;;;;;;-144.99;100.00;52452.16;5010301;28;19979;-63
2023/04/14 05:52:52;;;;;;;;;;;;;;;-144.99;100.00;52460.31;5010586;28;20353;-64
2023/04/14 05:55:18;;;;;;;;;;;;;;;-144.99;100.00;52464.41;5010234;28;20331;-64
2023/04/14 05:57:46;;;;;;;;;;;;;;;-144.99;100.00;52509.25;5009766;28;20359;-63
2023/04/14 06:00:13;;;;;;;;;;;;;;;-144.99;100.00;52492.94;5010377;28;19925;-64
2023/04/14 06:02:39;;;;;;;;;;;;;;;-144.99;100.00;52452.16;5009489;28;19984;-64
2023/04/14 06:05:08;;;;;;;;;;;;;;;-144.99;100.00;52488.84;5010267;28;20428;-64
2023/04/14 06:07:35;;;;;;;;;;;;;;;-144.99;100.00;52456.25;5010134;28;20024;-64
2023/04/14 06:10:01;;;;;;;;;;;;;;;-144.99;100.00;52427.72;5007974;28;20337;-64
2023/04/14 06:12:28;;;;;;;;;;;;;;;-144.99;100.00;52415.47;5000700;28;20367;-64
2023/04/14 06:14:55;;;;;;;;;;;;;;;-144.99;100.00;52474.59;5010563;28;19932;-64
2023/04/14 06:17:21;;;;;;;;;;;;;;;-144.99;100.00;52448.09;5009049;28;20008;-65
2023/04/14 06:19:48;;;;;;;;;;;;;;;-144.99;100.00;52423.63;5000545;28;19995;-64
2023/04/14 06:22:18;;;;;;;;;;;;;;;-144.99;100.00;52425.66;5001284;28;20041;-64
2023/04/14 06:24:45;;;;;;;;;;;;;;;-144.99;100.00;52478.66;4999766;28;20403;-66
2023/04/14 06:27:11;;;;;;;;;;;;;;;-144.99;100.00;52415.47;5008461;28;19925;-65
2023/04/14 06:29:38;;;;;;;;;;;;;;;-144.99;100.00;52407.31;5009716;28;19930;-65
2023/04/14 06:32:04;;;;;;;;;;;;;;;-144.99;100.00;52435.88;5013269;28;20001;-65
2023/04/14 06:34:31;;;;;;;;;;;;;;;-144.99;100.00;52435.88;5009773;28;19925;-65
2023/04/14 06:37:00;;;;;;;;;;;;;;;-144.99;100.00;52435.88;5008350;28;19999;-66
2023/04/14 06:39:28;;;;;;;;;;;;;;;-144.99;100.00;52419.56;5010239;28;19936;-65
2023/04/14 06:41:55;;;;;;;;;;;;;;;-144.99;100.00;52409.38;5009608;28;20076;-65
2023/04/14 06:44:22;;;;;;;;;;;;;;;-144.99;100.00;52423.63;5014132;28;20312;-64
2023/04/14 06:46:48;;;;;;;;;;;;;;;-144.99;100.00;52403.25;5008018;28;19987;-66
2023/04/14 06:49:16;;;;;;;;;;;;;;;-144.99;100.00;52407.31;5007480;28;20457;-65
2023/04/14 06:51:42;;;;;;;;;;;;;;;-144.99;100.00;52372.69;5009366;28;19926;-65
2023/04/14 06:54:09;;;;;;;;;;;;;;;-144.99;100.00;52431.78;5007897;28;19969;-65
2023/04/14 06:56:37;;;;;;;;;;;;;;;-144.99;100.00;52388.97;5009915;28;20322;-67
2023/04/14 06:59:03;;;;;;;;;;;;;;;-144.99;100.00;52399.19;5005213;28;19980;-65
2023/04/14 07:01:30;;;;;;;;;;;;;;;-144.99;100.00;52421.59;5008369;28;19929;-67
2023/04/14 07:03:57;;;;;;;;;;;;;;;-144.99;100.00;52460.31;5000208;28;20382;-66
2023/04/14 07:06:23;;;;;;;;;;;;;;;-144.99;100.00;52427.72;5009039;28;19925;-66
2023/04/14 07:08:50;;;;;;;;;;;;;;;-144.99;100.00;52374.72;5005955;28;20413;-66
2023/04/14 07:11:16;;;;;;;;;;;;;;;-144.99;100.00;52423.63;5004004;28;19929;-66
2023/04/14 07:13:44;;;;;;;;;;;;;;;-144.99;100.00;52382.88;5009065;28;19929;-65
2023/04/14 07:16:11;;;;;;;;;;;;;;;-144.99;100.00;52407.31;4998997;28;20341;-64
2023/04/14 07:18:38;;;;;;;;;;;;;;;-144.99;98.51;52370.63;5009045;28;19933;-67
2023/04/14 07:21:04;;;;;;;;;;;;;;;-144.99;94.13;52423.63;5009363;28;20069;-65
2023/04/14 07:23:32;;;;;;;;;;;;;;;-144.99;92.05;52374.72;5003583;28;20011;-65
2023/04/14 07:25:59;;;;;;;;;;;;;;;-144.99;91.98;52348.22;5009363;28;19925;-66
2023/04/14 07:28:26;;;;;;;;;;;;;;;-144.99;90.65;52386.94;5002220;28;19930;-66
2023/04/14 07:30:54;;;;;;;;;;;;;;;-144.99;89.90;52370.63;5009804;28;20266;-65
2023/04/14 07:33:22;;;;;;;;;;;;;;;-144.99;89.00;52378.78;5005291;28;19930;-66
2023/04/14 07:35:49;;;;;;;;;;;;;;;-144.99;89.20;52362.50;5009779;28;19979;-67
2023/04/14 07:38:16;;;;;;;;;;;;;;;-144.99;87.68;52378.78;5009486;28;19929;-66
2023/04/14 07:40:42;;;;;;;;;;;;;;;-144.99;87.64;52370.63;5006776;28;20028;-66
2023/04/14 07:43:09;;;;;;;;;;;;;;;-144.99;86.65;52399.19;5003898;28;19930;-67
2023/04/14 07:45:36;;;;;;;;;;;;;;;-144.99;85.16;52366.56;5009326;28;20064;-66
2023/04/14 07:48:04;;;;;;;;;;;;;;;-144.99;84.43;52366.56;5017347;28;20387;-65
2023/04/14 07:50:30;;;;;;;;;;;;;;;-144.99;83.52;52329.88;4996694;28;19980;-66
2023/04/14 07:52:58;;;;;;;;;;;;;;;-144.99;82.15;52327.84;5009742;28;19991;-66
2023/04/14 07:55:24;;;;;;;;;;;;;;;-144.99;81.24;52329.88;5009092;28;19930;-66
2023/04/14 07:57:51;;;;;;;;;;;;;;;-144.99;80.84;52329.88;5008674;28;20361;-67
2023/04/14 08:00:17;;;;;;;;;;;;;;;-144.99;80.79;52317.66;5008996;28;20609;-65
2023/04/14 08:02:44;;;;;;;;;;;;;;;-144.99;79.60;52346.19;5003600;28;20428;-66
2023/04/14 08:05:12;;;;;;;;;;;;;;;-144.99;79.02;52333.94;5007183;28;19925;-65
2023/04/14 08:07:39;;;;;;;;;;;;;;;-144.99;78.35;52358.41;5008472;28;19984;-65
2023/04/14 08:10:06;;;;;;;;;;;;;;;-144.99;77.70;52329.88;5008300;28;20251;-65
2023/04/14 08:12:32;;;;;;;;;;;;;;;-144.99;76.06;52329.88;5000464;28;19926;-65
2023/04/14 08:14:59;;;;;;;;;;;;;;;-144.99;75.49;52313.56;5000852;28;20362;-65
2023/04/14 08:17:26;;;;;;;;;;;;;;;-144.99;75.40;52338.03;5009259;28;19930;-66
2023/04/14 08:19:52;;;;;;;;;;;;;;;-144.99;75.42;52352.28;5008713;28;19936;-67
2023/04/14 08:22:20;;;;;;;;;;;;;;;-144.99;75.33;52358.41;5009138;28;19937;-65
2023/04/14 08:24:47;;;;;;;;;;;;;;;-144.99;74.70;52309.50;5011464;28;19929;-66
2023/04/14 08:27:13;;;;;;;;;;;;;;;-144.99;74.25;52348.22;5011380;28;19984;-66
2023/04/14 08:29:40;;;;;;;;;;;;;;;-144.99;73.67;52356.38;5007630;28;19929;-66
2023/04/14 08:32:06;;;;;;;;;;;;;;;-144.99;72.63;52342.09;5007028;28;19926;-65
2023/04/14 08:34:33;;;;;;;;;;;;;;;-144.99;73.19;52346.19;5011104;28;20401;-65
2023/04/14 08:37:00;;;;;;;;;;;;;;;-144.99;73.32;52378.78;5006973;28;19976;-65
2023/04/14 08:39:28;;;;;;;;;;;;;;;-144.99;73.36;52370.63;5008061;28;20374;-65
2023/04/14 08:41:55;;;;;;;;;;;;;;;-144.99;72.88;52370.63;5015542;28;19953;-65
2023/04/14 08:44:22;;;;;;;;;;;;;;;-144.99;72.51;52346.19;5011293;28;19949;-66
2023/04/14 08:46:50;;;;;;;;;;;;;;;-144.99;73.37;52378.78;5012522;28;19929;-66
2023/04/14 08:49:23;;;;;;;;;;;;;;;-144.99;72.49;52352.28;5019143;28;19933;-66
2023/04/14 08:51:51;;;;;;;;;;;;;;;-144.99;72.09;52321.72;5015870;28;19961;-65
2023/04/14 08:54:19;;;;;;;;;;;;;;;-144.99;72.18;52283.00;5012535;28;19929;-65
2023/04/14 08:56:47;;;;;;;;;;;;;;;-144.99;71.99;52333.94;5012268;28;20158;-67
2023/04/14 08:59:13;;;;;;;;;;;;;;;-144.99;71.00;52346.19;5011682;28;19934;-65
2023/04/14 09:01:40;;;;;;;;;;;;;;;-144.99;70.30;52321.72;5010396;28;19972;-66
2023/04/14 09:04:07;;;;;;;;;;;;;;;-144.99;69.53;52329.88;5008570;28;20290;-65
2023/04/14 09:06:34;;;;;;;;;;;;;;;-144.99;69.30;52333.94;5011020;28;20402;-65
2023/04/14 09:09:02;;;;;;;;;;;;;;;-144.99;69.23;52346.19;5000587;28;19973;-66
2023/04/14 09:11:29;;;;;;;;;;;;;;;-144.99;69.94;52309.50;5011632;28;19926;-66
2023/04/14 09:13:58;;;;;;;;;;;;;;;-144.99;69.80;52325.81;5002826;28;19932;-67
2023/04/14 09:16:26;;;;;;;;;;;;;;;-144.99;70.26;52329.88;5008656;28;19926;-67
2023/04/14 09:18:53;;;;;;;;;;;;;;;-144.99;70.00;52313.56;5011536;28;19997;-65
2023/04/14 09:21:20;;;;;;;;;;;;;;;-144.99;69.05;52338.03;5011630;28;19929;-67
2023/04/14 09:23:47;;;;;;;;;;;;;;;-144.99;68.57;52329.88;5006059;28;19934;-65
2023/04/14 09:26:13;;;;;;;;;;;;;;;-144.99;68.73;52358.41;5011340;28;20425;-66
2023/04/14 09:28:40;;;;;;;;;;;;;;;-144.99;68.47;52342.09;5010944;28;19937;-65
2023/04/14 09:31:10;;;;;;;;;;;;;;;-144.99;67.54;52305.41;5014430;28;20334;-66
2023/04/14 09:33:38;;;;;;;;;;;;;;;-144.99;67.39;52331.91;5011169;28;19925;-65
2023/04/14 09:36:05;;;;;;;;;;;;;;;-144.99;67.30;52321.72;5012368;28;19929;-66
2023/04/14 09:38:32;;;;;;;;;;;;;;;-144.99;67.67;52354.34;5011566;28;20456;-66
2023/04/14 09:40:59;;;;;;;;;;;;;;;-144.99;66.80;52317.66;5007143;28;20377;-66
2023/04/14 09:43:26;;;;;;;;;;;;;;;-144.99;66.88;52340.06;5015668;28;19929;-65
2023/04/14 09:45:53;;;;;;;;;;;;;;;-144.99;66.66;52313.56;5008683;28;19929;-68
2023/04/14 09:48:21;;;;;;;;;;;;;;;-144.99;66.47;52333.94;5021091;28;19934;-66
2023/04/14 09:50:58;;;;;;;;;;;;;;;-144.99;65.82;52342.09;5010733;28;19926;-65
2023/04/14 09:53:25;;;;;;;;;;;;;;;-144.99;64.57;52285.03;5009796;28;19931;-66
2023/04/14 09:55:52;;;;;;;;;;;;;;;-144.99;64.39;52352.28;5010697;28;19944;-66
2023/04/14 09:58:21;;;;;;;;;;;;;;;-144.99;63.88;52325.81;5010184;28;19933;-66
2023/04/14 10:00:48;;;;;;;;;;;;;;;-144.99;64.07;52289.13;5002471;28;19931;-66
2023/04/14 10:03:14;;;;;;;;;;;;;;;-144.99;64.05;52301.34;5005647;28;20335;-66
2023/04/14 10:05:45;;;;;;;;;;;;;;;-144.99;63.84;52305.41;4999352;28;19965;-66
2023/04/14 10:08:12;;;;;;;;;;;;;;;-144.99;63.27;52252.44;5001051;28;20362;-65
2023/04/14 10:10:38;;;;;;;;;;;;;;;-144.99;63.69;52305.41;5008524;28;20132;-65
2023/04/14 10:13:05;;;;;;;;;;;;;;;-144.99;63.22;52333.94;5007259;28;19933;-65
2023/04/14 10:15:32;;;;;;;;;;;;;;;-144.99;62.01;52285.03;5010818;28;20092;-66
2023/04/14 10:17:58;;;;;;;;;;;;;;;-144.99;61.65;52268.72;5010811;28;19929;-66
2023/04/14 10:20:25;;;;;;;;;;;;;;;-144.99;61.40;52289.13;5009775;28;19925;-65
2023/04/14 10:22:55;;;;;;;;;;;;;;;-144.99;60.96;52287.06;5010451;28;19944;-66
2023/04/14 10:25:21;;;;;;;;;;;;;;;-144.99;61.60;52278.91;5002979;28;19936;-67
2023/04/14 10:27:48;;;;;;;;;;;;;;;-144.99;61.48;52283.00;5013436;28;20334;-67
2023/04/14 10:30:15;;;;;;;;;;;;;;;-144.99;61.20;52289.13;5004582;28;19988;-66
2023/04/14 10:32:44;;;;;;;;;;;;;;;-144.99;61.07;52260.56;5003931;28;19929;-67
2023/04/14 10:35:12;;;;;;;;;;;;;;;-144.99;60.79;52303.38;5009864;28;19933;-67
2023/04/14 10:37:40;;;;;;;;;;;;;;;-144.99;60.39;52272.81;5005635;28;20167;-66
2023/04/14 10:40:08;;;;;;;;;;;;;;;-144.99;60.54;52272.81;5001681;28;19972;-66
2023/04/14 10:42:54;;;;;;;;;;;;;;;-144.99;60.25;52242.22;5009234;28;19929;-66
2023/04/14 10:45:21;;;;;;;;;;;;;;;-144.99;59.74;52256.50;5009420;28;19960;-67
2023/04/14 10:47:49;;;;;;;;;;;;;;;-144.99;59.52;52236.13;5017488;28;20334;-67
2023/04/14 10:50:18;;;;;;;;;;;;;;;-144.99;58.30;52223.88;5004251;28;20307;-66
2023/04/14 10:52:50;;;;;;;;;;;;;;;-144.99;58.27;52258.53;4999365;28;19977;-67
2023/04/14 10:55:21;;;;;;;;;;;;;;;-144.99;58.29;52248.34;5003700;28;19929;-67
2023/04/14 10:57:47;;;;;;;;;;;;;;;-144.99;57.91;52236.13;5002293;28;20460;-66
2023/04/14 11:00:25;;;;;;;;;;;;;;;-144.99;58.27;52252.44;5009622;28;19930;-66
2023/04/14 11:02:55;;;;;;;;;;;;;;;-144.99;57.31;52207.59;5008765;28;20020;-65
2023/04/14 11:05:22;;;;;;;;;;;;;;;-144.99;57.85;52227.97;5007067;28;20075;-66
2023/04/14 11:07:52;;;;;;;;;;;;;;;-144.99;57.84;52252.44;5003952;28;19936;-65
2023/04/14 11:10:27;;;;;;;;;;;;;;;-144.99;57.14;52195.34;5009618;28;19929;-66
2023/04/14 11:12:57;;;;;;;;;;;;;;;-144.99;56.87;52215.75;5005722;28;19975;-65
2023/04/14 11:15:24;;;;;;;;;;;;;;;-144.99;55.98;52158.66;5003814;28;20343;-66
2023/04/14 11:17:51;;;;;;;;;;;;;;;-144.99;55.98;52183.13;5009399;28;19936;-65
2023/04/14 11:20:18;;;;;;;;;;;;;;;-144.99;56.30;52191.28;5005449;28;20002;-66
2023/04/14 11:22:46;;;;;;;;;;;;;;;-144.99;55.87;52174.97;5009330;28;19969;-65
2023/04/14 11:25:13;;;;;;;;;;;;;;;-144.99;56.00;52166.81;5006594;28;19926;-66
2023/04/14 11:27:41;;;;;;;;;;;;;;;-144.99;56.16;52138.28;5005980;28;19983;-65
2023/04/14 11:30:08;;;;;;;;;;;;;;;-144.99;55.91;52191.28;5009410;28;19964;-65
2023/04/14 11:32:45;;;;;;;;;;;;;;;-144.99;56.25;52154.59;4998957;28;19926;-65
2023/04/14 11:35:11;;;;;;;;;;;;;;;-144.99;56.50;52162.75;5009113;28;20039;-66
2023/04/14 11:37:38;;;;;;;;;;;;;;;-144.99;56.59;52187.19;5009031;28;19949;-67
2023/04/14 11:40:05;;;;;;;;;;;;;;;-144.99;55.86;52170.91;5010866;28;20326;-67
2023/04/14 11:42:32;;;;;;;;;;;;;;;-144.99;56.20;52154.59;5011698;28;19925;-67
2023/04/14 11:45:02;;;;;;;;;;;;;;;-144.99;55.82;52195.34;5012666;28;19936;-67
2023/04/14 11:47:29;;;;;;;;;;;;;;;-144.99;55.66;52199.44;5023697;28;19925;-66
2023/04/14 11:49:56;;;;;;;;;;;;;;;-144.99;56.07;52199.44;5017874;28;20293;-67
2023/04/14 11:52:22;;;;;;;;;;;;;;;-144.99;55.87;52232.03;5010988;28;19991;-65
2023/04/14 11:54:49;;;;;;;;;;;;;;;-144.99;56.04;52219.81;5009538;28;19926;-65
2023/04/14 11:57:17;;;;;;;;;;;;;;;-144.99;55.93;52193.31;5005650;28;20008;-65
2023/04/14 11:59:44;;;;;;;;;;;;;;;-144.99;56.19;52211.66;5013447;28;19983;-67
2023/04/14 12:02:21;;;;;;;;;;;;;;;-144.99;56.45;52211.66;5005889;28;19954;-66
2023/04/14 12:04:49;;;;;;;;;;;;;;;-144.99;56.88;52264.66;5002606;28;19929;-66
2023/04/14 12:07:16;;;;;;;;;;;;;;;-144.99;57.22;52244.28;5009601;28;19933;-66
2023/04/14 12:09:44;;;;;;;;;;;;;;;-144.99;57.39;52283.00;5010886;28;19929;-66
2023/04/14 12:12:12;;;;;;;;;;;;;;;-144.99;57.85;52256.50;5008520;28;19995;-66
2023/04/14 12:14:38;;;;;;;;;;;;;;;-144.99;58.12;52321.72;5007810;28;19925;-66
2023/04/14 12:17:06;;;;;;;;;;;;;;;-144.99;58.85;52260.56;5015397;28;19925;-66
2023/04/14 12:19:34;;;;;;;;;;;;;;;-144.99;59.32;52321.72;5012771;28;19929;-65
2023/04/14 12:22:01;;;;;;;;;;;;;;;-144.99;59.41;52285.03;5012677;28;19925;-65
2023/04/14 12:24:33;;;;;;;;;;;;;;;-144.99;59.22;52331.91;5005071;28;19930;-66